This is the latest recevied weather packets stored in our database for station/object MEGLR. If no packets are shown the sender has not sent any weather packets the latest 10 day(s).
| Time | Temp. | Humidity | Pressure | Rain* | Wind** | Luminosity | Snow |
|---|---|---|---|---|---|---|---|
| 1787644203 | 16.67° C | 87% | 0 hPa | - | - | - | - |
| 1787643602 | 17.78° C | 84% | 0 hPa | - | - | - | - |
| 1787643003 | 17.22° C | 85% | 0 hPa | - | - | - | - |
| 1787642403 | 17.78° C | 84% | 0 hPa | - | - | - | - |
| 1787641803 | 17.78° C | 82% | 0 hPa | - | - | - | - |
| 1787641204 | 18.33° C | 80% | 0 hPa | - | - | - | - |
| 1787640603 | 18.33° C | 79% | 0 hPa | - | - | - | - |
| 1787640003 | 18.89° C | 76% | 0 hPa | - | - | - | - |
| 1787639403 | 18.89° C | 77% | 0 hPa | - | - | - | - |
| 1787638804 | 18.89° C | 79% | 0 hPa | - | - | - | - |
| 1787638202 | 18.89° C | 79% | 0 hPa | - | - | - | - |
| 1787637604 | 19.44° C | 77% | 0 hPa | - | - | - | - |
| 1787637003 | 20° C | 76% | 0 hPa | - | - | - | - |
| 1787636403 | 20° C | 75% | 0 hPa | - | - | - | - |
| 1787635808 | 20° C | 74% | 0 hPa | - | - | - | - |
| 1787635203 | 20° C | 74% | 0 hPa | - | - | - | - |
| 1787634603 | 20° C | 72% | 0 hPa | - | - | - | - |
| 1787634004 | 20° C | 73% | 0 hPa | - | - | - | - |
| 1787633402 | 20° C | 73% | 0 hPa | - | - | - | - |
| 1787632803 | 18.89° C | 76% | 0 hPa | - | - | - | - |
| 1787632204 | 18.89° C | 77% | 0 hPa | - | - | - | - |
| 1787631603 | 18.33° C | 79% | 0 hPa | - | - | - | - |
| 1787631003 | 18.33° C | 81% | 0 hPa | - | - | - | - |
| 1787630404 | 18.33° C | 82% | 0 hPa | - | - | - | - |
| 1787629802 | 17.78° C | 84% | 0 hPa | - | - | - | - |
* Rain since midnight (hover to see other rain measurements)
** Current wind speed in m/s (hover to see current wind gust speed)